Time;durP1;ratioP1;P1;durP2;ratioP2;P2;SDS_P1;SDS_P2;PMS_P1;PMS_P2;Temp;Humidity;BMP_temperature;BMP_pressure;BME280_temperature;BME280_humidity;BME280_pressure;Samples;Min_cycle;Max_cycle;Signal;HPM_P1;HPM_P2
2022/08/09 00:01:36;;;;;;;7.43;4.10;;;13.30;99.90;;;;;;5036689;28;20456;-71
2022/08/09 00:04:02;;;;;;;7.22;4.00;;;13.30;99.90;;;;;;5034611;28;20064;-70
2022/08/09 00:06:28;;;;;;;8.55;4.65;;;13.30;99.90;;;;;;5036330;28;20053;-70
2022/08/09 00:08:54;;;;;;;6.63;3.88;;;13.20;99.90;;;;;;5038144;28;20049;-71
2022/08/09 00:11:20;;;;;;;9.95;4.20;;;13.20;99.90;;;;;;5041958;28;20049;-71
2022/08/09 00:13:47;;;;;;;6.85;3.80;;;13.20;99.90;;;;;;5032878;28;20115;-71
2022/08/09 00:16:12;;;;;;;9.85;4.15;;;13.10;99.90;;;;;;5037010;28;20079;-71
2022/08/09 00:18:38;;;;;;;7.20;4.15;;;13.10;99.90;;;;;;5028596;28;20069;-71
2022/08/09 00:21:06;;;;;;;10.40;4.43;;;13.10;99.90;;;;;;5051480;28;20033;-71
2022/08/09 00:23:32;;;;;;;6.60;4.15;;;13.00;99.90;;;;;;5035116;28;20056;-71
2022/08/09 00:25:58;;;;;;;7.63;4.50;;;13.00;99.90;;;;;;5023038;28;20048;-71
2022/08/09 00:28:24;;;;;;;10.20;4.60;;;13.00;99.90;;;;;;5054117;28;20041;-71
2022/08/09 00:30:51;;;;;;;9.30;4.30;;;12.90;99.90;;;;;;5023987;28;20080;-72
2022/08/09 00:33:17;;;;;;;8.75;4.63;;;12.90;99.90;;;;;;5021328;28;20045;-72
2022/08/09 00:35:43;;;;;;;7.25;4.32;;;12.80;99.90;;;;;;5014930;28;20108;-71
2022/08/09 00:38:11;;;;;;;6.95;3.88;;;12.80;99.90;;;;;;5035706;28;20502;-71
2022/08/09 00:40:40;;;;;;;6.38;4.25;;;12.80;99.90;;;;;;5027019;28;20387;-71
2022/08/09 00:43:06;;;;;;;8.00;4.15;;;12.80;99.90;;;;;;5029424;28;20494;-71
2022/08/09 00:45:32;;;;;;;9.52;4.28;;;12.80;99.90;;;;;;5016337;28;20107;-72
2022/08/09 00:47:58;;;;;;;7.57;4.03;;;12.80;99.90;;;;;;5034855;28;20076;-72
2022/08/09 00:50:24;;;;;;;7.82;4.40;;;12.90;99.90;;;;;;5040978;28;20045;-71
2022/08/09 00:52:53;;;;;;;8.55;4.40;;;12.70;99.90;;;;;;5033950;28;20040;-71
2022/08/09 00:55:19;;;;;;;6.07;3.90;;;12.70;99.90;;;;;;5036879;28;20041;-71
2022/08/09 00:57:45;;;;;;;6.60;4.15;;;12.70;99.90;;;;;;5039468;28;20043;-71
2022/08/09 01:00:12;;;;;;;7.13;4.13;;;12.60;99.90;;;;;;5042221;28;20140;-71
2022/08/09 01:02:45;;;;;;;7.18;4.55;;;12.60;99.90;;;;;;5035558;28;20048;-71
2022/08/09 01:05:19;;;;;;;6.68;4.18;;;12.60;99.90;;;;;;5032770;28;20048;-71
2022/08/09 01:08:01;;;;;;;6.30;4.07;;;12.50;99.90;;;;;;5019733;28;20136;-71
2022/08/09 01:10:30;;;;;;;;;;;12.50;99.90;;;;;;5053830;28;20060;-71
2022/08/09 01:13:22;;;;;;;6.80;4.03;;;12.50;99.90;;;;;;5035832;28;19922;-71
2022/08/09 01:15:53;;;;;;;6.82;3.80;;;12.50;99.90;;;;;;5039242;28;20053;-71
2022/08/09 01:18:23;;;;;;;9.13;3.97;;;12.40;99.90;;;;;;5039090;28;20053;-71
2022/08/09 01:21:14;;;;;;;8.70;4.83;;;12.40;99.90;;;;;;5037363;28;20099;-71
2022/08/09 01:23:58;;;;;;;8.32;3.72;;;12.40;99.90;;;;;;5036127;28;20091;-72
2022/08/09 01:26:53;;;;;;;6.30;4.22;;;12.40;99.90;;;;;;5038160;28;20056;-72
2022/08/09 01:29:30;;;;;;;8.63;3.83;;;12.40;99.90;;;;;;5041452;28;20504;-71
2022/08/09 01:32:00;;;;;;;7.28;3.75;;;12.40;99.90;;;;;;5022532;28;20051;-72
2022/08/09 01:34:29;;;;;;;7.97;4.13;;;12.40;99.90;;;;;;5034268;28;20033;-72
2022/08/09 01:36:58;;;;;;;10.20;4.20;;;12.50;99.90;;;;;;5052052;28;20479;-71
2022/08/09 01:39:26;;;;;;;8.10;4.03;;;12.30;99.90;;;;;;5042676;28;20080;-71
2022/08/09 01:41:54;;;;;;;8.80;4.15;;;12.30;99.90;;;;;;5038302;28;20111;-71
2022/08/09 01:44:21;;;;;;;6.85;4.00;;;12.00;99.90;;;;;;5035395;28;20037;-71
2022/08/09 01:46:49;;;;;;;6.60;3.83;;;12.30;99.90;;;;;;5036704;28;20124;-72
2022/08/09 01:49:16;;;;;;;8.20;4.22;;;12.30;99.90;;;;;;5039407;28;20057;-71
2022/08/09 01:51:57;;;;;;;7.88;3.70;;;12.20;99.90;;;;;;5030717;28;20077;-72
2022/08/09 01:54:34;;;;;;;6.70;3.38;;;12.20;99.90;;;;;;5039055;28;20360;-71
2022/08/09 01:57:11;;;;;;;6.45;3.28;;;12.20;99.90;;;;;;5040954;28;20123;-71
2022/08/09 01:59:40;;;;;;;6.43;3.33;;;12.20;99.90;;;;;;5039721;28;20040;-70
2022/08/09 02:02:09;;;;;;;5.38;2.90;;;12.10;99.90;;;;;;5041454;28;20052;-72
2022/08/09 02:04:36;;;;;;;5.95;3.22;;;12.20;99.90;;;;;;5041657;28;20524;-72
2022/08/09 02:07:08;;;;;;;7.10;3.53;;;12.10;99.90;;;;;;5044575;28;20040;-72
2022/08/09 02:09:41;;;;;;;5.32;3.20;;;12.10;99.90;;;;;;5029814;28;20037;-71
2022/08/09 02:12:09;;;;;;;5.88;3.05;;;12.10;99.90;;;;;;5030788;28;20091;-71
2022/08/09 02:14:37;;;;;;;5.75;2.80;;;12.10;99.90;;;;;;5043725;28;20057;-71
2022/08/09 02:17:05;;;;;;;5.35;2.85;;;12.10;99.90;;;;;;5028066;28;20533;-71
2022/08/09 02:19:31;;;;;;;7.38;2.97;;;12.30;99.90;;;;;;5030148;28;20052;-72
2022/08/09 02:22:00;;;;;;;6.68;3.13;;;12.10;99.90;;;;;;5047397;28;20064;-71
2022/08/09 02:24:34;;;;;;;5.53;2.80;;;12.00;99.90;;;;;;5042471;28;20094;-72
2022/08/09 02:27:03;;;;;;;6.03;2.80;;;12.00;99.90;;;;;;5028636;28;20426;-72
2022/08/09 02:29:47;;;;;;;5.88;2.97;;;12.00;99.90;;;;;;5046190;28;20075;-72
2022/08/09 02:32:15;;;;;;;4.72;2.58;;;11.90;99.90;;;;;;5046001;28;20587;-72
2022/08/09 02:34:44;;;;;;;4.68;2.80;;;11.90;99.90;;;;;;5046154;28;20497;-72
2022/08/09 02:37:15;;;;;;;4.78;2.50;;;11.90;99.90;;;;;;5047164;28;20159;-71
2022/08/09 02:39:52;;;;;;;5.30;2.83;;;11.80;99.90;;;;;;5046837;28;20033;-72
2022/08/09 02:42:29;;;;;;;6.53;3.13;;;11.80;99.90;;;;;;5049269;28;20132;-72
2022/08/09 02:45:01;;;;;;;6.50;2.70;;;11.70;99.90;;;;;;5048145;28;20101;-72
2022/08/09 02:47:29;;;;;;;5.18;2.75;;;11.70;99.90;;;;;;5029846;28;20045;-72
2022/08/09 02:50:17;;;;;;;5.65;3.08;;;11.70;99.90;;;;;;5048985;28;20221;-72
2022/08/09 02:52:48;;;;;;;6.63;3.20;;;11.70;99.90;;;;;;5034870;28;20220;-72
2022/08/09 02:55:15;;;;;;;;;;;12.00;99.90;;;;;;5047607;28;20040;-73
2022/08/09 02:57:42;;;;;;;;;;;11.70;99.90;;;;;;5048614;28;19920;-71
2022/08/09 03:00:10;;;;;;;;;;;11.70;99.90;;;;;;5047804;28;20038;-72
2022/08/09 03:02:37;;;;;;;;;;;11.70;99.90;;;;;;5060419;28;19971;-73
2022/08/09 03:05:04;;;;;;;;;;;11.60;99.90;;;;;;5049642;28;19936;-72
2022/08/09 03:07:30;;;;;;;;;;;11.60;99.90;;;;;;5049150;28;19979;-72
2022/08/09 03:09:56;;;;;;;;;;;11.60;99.90;;;;;;5031730;28;19920;-73
2022/08/09 03:12:22;;;;;;;;;;;11.50;99.90;;;;;;5045406;28;19978;-72
2022/08/09 03:14:49;;;;;;;;;;;11.60;99.90;;;;;;5045031;28;19925;-72
2022/08/09 03:17:15;;;;;;;;;;;11.50;99.90;;;;;;5048178;28;19925;-72
2022/08/09 03:19:41;;;;;;;;;;;11.50;99.90;;;;;;5049885;28;19978;-72
2022/08/09 03:22:07;;;;;;;;;;;11.50;99.90;;;;;;5044331;28;20433;-72
2022/08/09 03:24:33;;;;;;;;;;;11.50;99.90;;;;;;5048612;28;19929;-72
2022/08/09 03:26:59;;;;;;;;;;;11.50;99.90;;;;;;5046892;28;20387;-72
2022/08/09 03:29:25;;;;;;;;;;;11.50;99.90;;;;;;5048034;28;19928;-72
2022/08/09 03:31:54;;;;;;;;;;;11.50;99.90;;;;;;5047598;28;20394;-73
2022/08/09 03:34:19;;;;;;;;;;;11.50;99.90;;;;;;5047791;28;20023;-72
2022/08/09 03:36:45;;;;;;;;;;;11.50;99.90;;;;;;5031442;28;20416;-72
2022/08/09 03:39:11;;;;;;;;;;;11.50;99.90;;;;;;5048235;28;19924;-71
2022/08/09 03:41:37;;;;;;;;;;;11.40;99.90;;;;;;5047957;28;20297;-73
2022/08/09 03:44:02;;;;;;;;;;;11.40;99.90;;;;;;5028120;28;19993;-73
2022/08/09 03:46:28;;;;;;;;;;;11.40;99.90;;;;;;5030340;28;19932;-72
2022/08/09 03:48:55;;;;;;;;;;;11.40;99.90;;;;;;5047797;28;20221;-72
2022/08/09 03:51:23;;;;;;;;;;;11.40;99.90;;;;;;5032097;28;19920;-72
2022/08/09 03:53:49;;;;;;;;;;;11.40;99.90;;;;;;5029980;28;19925;-72
2022/08/09 03:56:14;;;;;;;;;;;11.40;99.90;;;;;;5048662;28;19928;-72
2022/08/09 03:58:40;;;;;;;;;;;11.40;99.90;;;;;;5048378;28;19921;-72
2022/08/09 04:01:06;;;;;;;;;;;11.40;99.90;;;;;;5042642;28;19928;-72
2022/08/09 04:03:32;;;;;;;;;;;11.40;99.90;;;;;;5043072;28;19951;-72
2022/08/09 04:05:59;;;;;;;;;;;11.70;99.90;;;;;;5045653;28;19921;-72
2022/08/09 04:08:24;;;;;;;;;;;11.40;99.90;;;;;;5040621;28;19932;-72
2022/08/09 04:10:50;;;;;;;;;;;11.30;99.90;;;;;;5041141;28;20026;-72
2022/08/09 04:13:16;;;;;;;;;;;11.40;99.90;;;;;;5043950;28;19928;-72
2022/08/09 04:15:43;;;;;;;;;;;11.40;99.90;;;;;;5019262;28;20165;-72
2022/08/09 04:18:09;;;;;;;;;;;11.30;99.90;;;;;;5024707;28;19939;-72
2022/08/09 04:20:35;;;;;;;;;;;11.30;99.90;;;;;;5042266;28;19928;-72
2022/08/09 04:23:00;;;;;;;;;;;11.30;99.90;;;;;;5042366;28;20396;-72
2022/08/09 04:25:26;;;;;;;;;;;11.30;99.90;;;;;;5041015;28;20871;-72
2022/08/09 04:27:52;;;;;;;;;;;11.50;99.90;;;;;;5015263;28;19924;-72
2022/08/09 04:30:18;;;;;;;;;;;11.40;99.90;;;;;;5027521;28;20385;-72
2022/08/09 04:32:44;;;;;;;;;;;11.40;99.90;;;;;;5026128;28;19929;-72
2022/08/09 04:35:11;;;;;;;;;;;11.40;99.90;;;;;;5033328;28;19936;-72
2022/08/09 04:37:36;;;;;;;;;;;11.50;99.90;;;;;;5028570;28;19921;-73
2022/08/09 04:40:03;;;;;;;;;;;11.50;99.90;;;;;;5036589;28;20438;-73
2022/08/09 04:42:29;;;;;;;;;;;11.60;99.90;;;;;;5041263;28;19924;-72
2022/08/09 04:44:56;;;;;;;;;;;11.60;99.90;;;;;;5045366;28;19972;-72
2022/08/09 04:47:22;;;;;;;;;;;11.60;99.90;;;;;;5022502;28;19925;-72
2022/08/09 04:49:48;;;;;;;;;;;12.30;99.90;;;;;;5049066;28;19921;-72
2022/08/09 04:52:13;;;;;;;;;;;12.30;99.90;;;;;;5044132;28;19982;-72
2022/08/09 04:54:39;;;;;;;;;;;12.80;99.90;;;;;;5044534;28;19921;-72
2022/08/09 04:57:04;;;;;;;;;;;13.30;99.90;;;;;;5043341;28;19990;-73
2022/08/09 04:59:30;;;;;;;;;;;13.70;99.90;;;;;;5044994;28;20031;-73
2022/08/09 05:01:56;;;;;;;;;;;14.00;99.90;;;;;;5041424;28;20012;-73
2022/08/09 05:04:21;;;;;;;;;;;14.40;99.90;;;;;;5044092;28;19931;-73
2022/08/09 05:06:47;;;;;;;;;;;14.90;99.90;;;;;;5046248;28;19931;-73
2022/08/09 05:09:13;;;;;;;;;;;15.70;99.90;;;;;;5044869;28;19979;-72
2022/08/09 05:11:38;;;;;;;;;;;16.60;99.90;;;;;;5035466;28;19931;-73
2022/08/09 05:14:04;;;;;;;;;;;17.70;99.90;;;;;;5042706;28;20041;-72
2022/08/09 05:16:30;;;;;;;;;;;18.60;99.90;;;;;;5022671;28;20368;-73
2022/08/09 05:18:55;;;;;;;;;;;19.40;99.90;;;;;;5043378;28;20266;-72
2022/08/09 05:21:24;;;;;;;;;;;20.20;99.90;;;;;;5043537;28;19971;-72
2022/08/09 05:23:50;;;;;;;;;;;20.80;99.90;;;;;;5027209;28;19921;-72
2022/08/09 05:26:15;;;;;;;;;;;20.20;99.90;;;;;;5042002;28;19921;-72
2022/08/09 05:28:41;;;;;;;;;;;19.40;99.90;;;;;;5040584;28;20419;-73
2022/08/09 05:31:07;;;;;;;;;;;18.60;99.90;;;;;;5043059;28;19929;-73
2022/08/09 05:33:32;;;;;;;;;;;17.90;99.90;;;;;;5042021;28;19947;-72
2022/08/09 05:35:58;;;;;;;;;;;17.50;99.90;;;;;;5040570;28;19920;-72
2022/08/09 05:38:23;;;;;;;;;;;17.00;99.90;;;;;;5043705;28;19924;-72
2022/08/09 05:40:49;;;;;;;;;;;16.60;99.90;;;;;;5031698;28;19963;-72
2022/08/09 05:43:15;;;;;;;;;;;16.20;99.90;;;;;;5039120;28;19929;-72
2022/08/09 05:45:40;;;;;;;;;;;15.90;99.90;;;;;;5040355;28;20353;-72
2022/08/09 05:48:08;;;;;;;;;;;15.80;99.90;;;;;;5040060;28;19925;-72
2022/08/09 05:50:34;;;;;;;;;;;15.70;99.90;;;;;;5050996;28;20338;-72
2022/08/09 05:52:59;;;;;;;;;;;15.70;99.90;;;;;;5033475;28;19925;-72
2022/08/09 05:55:25;;;;;;;;;;;15.50;99.90;;;;;;5029785;28;20004;-72
2022/08/09 05:57:50;;;;;;;;;;;15.40;99.90;;;;;;5031105;28;20419;-71
2022/08/09 06:00:16;;;;;;;;;;;15.30;99.90;;;;;;5024811;28;19921;-71
2022/08/09 06:02:41;;;;;;;;;;;15.20;99.90;;;;;;5030323;28;19983;-71
2022/08/09 06:05:07;;;;;;;;;;;15.10;99.90;;;;;;5037540;28;19924;-71
2022/08/09 06:07:34;;;;;;;;;;;15.10;99.90;;;;;;5032587;28;19939;-71
2022/08/09 06:10:00;;;;;;;;;;;15.10;99.90;;;;;;5017512;28;19925;-71
2022/08/09 06:12:25;;;;;;;;;;;15.10;99.90;;;;;;5023769;28;20444;-71
2022/08/09 06:14:51;;;;;;;;;;;15.10;99.90;;;;;;5038960;28;19924;-72
2022/08/09 06:17:17;;;;;;;;;;;15.20;99.90;;;;;;5041656;28;19940;-71
2022/08/09 06:19:43;;;;;;;;;;;15.20;99.90;;;;;;5026919;28;19928;-71
2022/08/09 06:22:08;;;;;;;;;;;15.60;99.90;;;;;;5022631;28;20298;-70
2022/08/09 06:24:34;;;;;;;;;;;15.40;99.90;;;;;;5026592;28;20289;-71
2022/08/09 06:27:00;;;;;;;;;;;15.40;99.90;;;;;;5005196;28;19944;-70
2022/08/09 06:29:25;;;;;;;;;;;15.50;99.90;;;;;;5039590;28;19924;-70
2022/08/09 06:31:54;;;;;;;;;;;15.60;99.90;;;;;;5026235;28;19936;-71
2022/08/09 06:34:20;;;;;;;;;;;16.10;99.90;;;;;;5046497;28;19921;-71
2022/08/09 06:36:45;;;;;;;;;;;16.00;99.90;;;;;;5045041;28;19924;-69
2022/08/09 06:39:12;;;;;;;;;;;16.00;99.90;;;;;;5041007;28;19920;-69
2022/08/09 06:41:38;;;;;;;;;;;16.30;99.90;;;;;;5027345;28;19924;-69
2022/08/09 06:44:03;;;;;;;;;;;16.40;99.90;;;;;;5045062;28;20073;-71
2022/08/09 06:46:30;;;;;;;;;;;16.60;99.90;;;;;;5046105;28;20425;-70
2022/08/09 06:48:55;;;;;;;;;;;16.80;99.90;;;;;;5047183;28;20123;-70
2022/08/09 06:51:21;;;;;;;;;;;16.90;99.90;;;;;;5046155;28;20007;-70
2022/08/09 06:53:46;;;;;;;;;;;16.90;99.90;;;;;;5046243;28;20007;-70
2022/08/09 06:56:12;;;;;;;;;;;17.10;99.90;;;;;;5049521;28;20397;-71
2022/08/09 06:58:38;;;;;;;;;;;16.90;99.90;;;;;;5050958;28;20007;-70
2022/08/09 07:01:03;;;;;;;;;;;17.00;99.90;;;;;;5050317;28;20281;-71
2022/08/09 07:03:29;;;;;;;;;;;17.00;99.90;;;;;;5035572;28;19970;-70
2022/08/09 07:05:58;;;;;;;;;;;17.10;99.90;;;;;;5048890;28;19920;-70
2022/08/09 07:08:23;;;;;;;;;;;17.20;99.90;;;;;;5049764;28;19920;-71
2022/08/09 07:10:50;;;;;;;;;;;17.20;99.90;;;;;;5050281;28;19921;-69
2022/08/09 07:13:15;;;;;;;;;;;17.30;99.90;;;;;;5051215;28;20327;-69
2022/08/09 07:15:41;;;;;;;;;;;17.30;99.90;;;;;;5050122;28;20053;-68
2022/08/09 07:18:07;;;;;;;;;;;17.40;99.90;;;;;;5032458;28;20019;-69
2022/08/09 07:20:32;;;;;;;;;;;17.50;99.90;;;;;;5048454;28;19924;-69
2022/08/09 07:22:58;;;;;;;;;;;17.60;99.90;;;;;;5051769;28;20324;-69
2022/08/09 07:25:23;;;;;;;;;;;17.70;99.90;;;;;;5050383;28;20007;-69
2022/08/09 07:27:49;;;;;;;;;;;17.90;99.90;;;;;;5051318;28;19920;-70
2022/08/09 07:30:14;;;;;;;;;;;18.10;99.90;;;;;;5050274;28;20284;-70
2022/08/09 07:32:40;;;;;;;;;;;18.30;99.90;;;;;;5050774;28;19920;-69
2022/08/09 07:35:08;;;;;;;;;;;18.50;99.90;;;;;;5049819;28;20495;-70
2022/08/09 07:37:33;;;;;;;;;;;18.80;99.90;;;;;;5032749;28;20356;-68
2022/08/09 07:39:59;;;;;;;;;;;19.20;99.90;;;;;;5050741;28;19964;-69
2022/08/09 07:42:25;;;;;;;;;;;19.20;99.90;;;;;;5049506;28;19927;-69
2022/08/09 07:44:50;;;;;;;;;;;19.40;99.90;;;;;;5032889;28;20431;-68
2022/08/09 07:47:16;;;;;;;;;;;19.80;99.90;;;;;;5047682;28;20378;-68
2022/08/09 07:49:42;;;;;;;;;;;20.00;99.90;;;;;;5048319;28;19928;-69
2022/08/09 07:52:08;;;;;;;;;;;20.30;99.90;;;;;;5048933;28;20262;-68
2022/08/09 07:54:33;;;;;;;;;;;21.00;99.90;;;;;;5048853;28;20370;-68
2022/08/09 07:56:59;;;;;;;;;;;22.30;99.90;;;;;;5047732;28;20389;-69
2022/08/09 07:59:25;;;;;;;;;;;22.30;99.90;;;;;;5048429;28;19921;-69
2022/08/09 08:01:50;;;;;;;;;;;22.10;99.90;;;;;;5047724;28;19921;-69
2022/08/09 08:04:16;;;;;;;;;;;21.90;99.90;;;;;;5049756;28;19927;-69
2022/08/09 08:06:41;;;;;;;;;;;21.50;99.90;;;;;;5048221;28;19984;-70
2022/08/09 08:09:07;;;;;;;;;;;21.30;99.90;;;;;;5047864;28;20640;-69
2022/08/09 08:11:33;;;;;;;;;;;21.40;99.90;;;;;;5047666;28;20009;-69
2022/08/09 08:13:58;;;;;;;;;;;21.50;99.90;;;;;;5050088;28;19991;-69
2022/08/09 08:16:24;;;;;;;;;;;21.40;99.90;;;;;;5030164;28;20062;-70
2022/08/09 08:18:49;;;;;;;;;;;21.10;99.90;;;;;;5048721;28;19921;-70
2022/08/09 08:21:16;;;;;;;;;;;21.20;99.90;;;;;;5048070;28;19964;-71
2022/08/09 08:23:42;;;;;;;;;;;21.30;99.90;;;;;;5031071;28;19976;-70
2022/08/09 08:26:07;;;;;;;;;;;21.10;99.90;;;;;;5048281;28;19925;-70
2022/08/09 08:28:33;;;;;;;;;;;20.90;99.90;;;;;;5048347;28;19920;-69
2022/08/09 08:31:00;;;;;;;;;;;21.00;99.90;;;;;;5047412;28;19924;-69
2022/08/09 08:33:25;;;;;;;;;;;21.30;99.90;;;;;;5031619;28;19921;-68
2022/08/09 08:35:52;;;;;;;;;;;21.80;99.90;;;;;;5049104;28;20476;-71
2022/08/09 08:38:17;;;;;;;;;;;22.10;99.90;;;;;;5047841;28;19924;-70
2022/08/09 08:40:43;;;;;;;;;;;22.10;99.90;;;;;;5048843;28;19928;-70
2022/08/09 08:43:09;;;;;;;;;;;21.90;99.90;;;;;;5030340;28;19925;-70
2022/08/09 08:45:41;;;;;;;;;;;21.60;99.90;;;;;;5048504;28;19921;-70
2022/08/09 08:48:07;;;;;;;;;;;21.30;99.90;;;;;;5049777;28;20569;-70
2022/08/09 08:50:33;;;;;;;;;;;21.10;99.90;;;;;;5049127;28;19921;-70
2022/08/09 08:52:59;;;;;;;;;;;21.00;99.90;;;;;;5030873;28;19928;-69
2022/08/09 08:55:25;;;;;;;;;;;20.90;99.90;;;;;;5049070;28;19923;-69
2022/08/09 08:57:52;;;;;;;;;;;20.80;99.90;;;;;;5049099;28;19924;-70
2022/08/09 09:00:18;;;;;;;;;;;20.60;99.90;;;;;;5046157;28;19921;-70
2022/08/09 09:02:44;;;;;;;;;;;20.60;99.90;;;;;;5047834;28;19944;-70
2022/08/09 09:05:12;;;;;;;;;;;20.60;99.90;;;;;;5030286;28;20483;-69
2022/08/09 09:07:38;;;;;;;;;;;20.80;99.90;;;;;;5046548;28;19925;-70
2022/08/09 09:10:07;;;;;;;;;;;21.40;99.90;;;;;;5049446;28;19920;-71
2022/08/09 09:12:33;;;;;;;;;;;21.80;99.90;;;;;;5028849;28;19925;-70
2022/08/09 09:14:59;;;;;;;;;;;21.90;99.90;;;;;;5047468;28;20400;-71
2022/08/09 09:17:25;;;;;;;;;;;21.80;99.90;;;;;;5048033;28;20007;-70
2022/08/09 09:19:52;;;;;;;;;;;21.70;99.90;;;;;;5029962;28;19921;-71
2022/08/09 09:22:18;;;;;;;;;;;21.40;99.90;;;;;;5047501;28;20381;-69
2022/08/09 09:24:50;;;;;;;;;;;21.30;99.90;;;;;;5049365;28;20049;-70
2022/08/09 09:27:19;;;;;;;;;;;21.10;99.90;;;;;;5045337;28;20411;-69
2022/08/09 09:29:45;;;;;;;;;;;21.00;99.90;;;;;;5047458;28;19935;-69
2022/08/09 09:32:11;;;;;;;;;;;21.00;99.90;;;;;;5046916;28;19921;-70
2022/08/09 09:34:37;;;;;;;;;;;21.20;99.90;;;;;;5046702;28;19939;-70
2022/08/09 09:37:04;;;;;;;;;;;21.00;99.90;;;;;;5047328;28;20373;-70
2022/08/09 09:39:30;;;;;;;;;;;21.00;99.90;;;;;;5047622;28;19994;-70
2022/08/09 09:41:56;;;;;;;;;;;21.00;99.90;;;;;;5029513;28;19950;-71
2022/08/09 09:44:31;;;;;;;;;;;21.10;99.90;;;;;;5048062;28;20532;-70
2022/08/09 09:47:15;;;;;;;;;;;21.20;99.90;;;;;;5030310;28;20370;-70
2022/08/09 09:49:48;;;;;;;;;;;21.40;99.90;;;;;;5046515;28;19928;-71
2022/08/09 09:52:13;;;;;;;;;;;21.90;99.90;;;;;;5046914;28;19955;-70
2022/08/09 09:54:42;;;;;;;;;;;22.20;99.90;;;;;;5045690;28;19934;-73
2022/08/09 09:57:21;;;;;;;;;;;22.30;99.90;;;;;;5046110;28;20296;-71
2022/08/09 09:59:48;;;;;;;;;;;22.10;99.90;;;;;;5048084;28;19928;-70
2022/08/09 10:02:14;;;;;;;;;;;21.90;99.90;;;;;;5045918;28;20250;-69
2022/08/09 10:04:40;;;;;;;;;;;21.80;99.90;;;;;;5030690;28;19925;-70
2022/08/09 10:07:21;;;;;;;;;;;21.70;99.90;;;;;;5048612;28;19921;-70
2022/08/09 10:09:48;;;;;;;;;;;21.70;99.90;;;;;;5029110;28;19931;-71
2022/08/09 10:12:22;;;;;;;;;;;21.90;99.90;;;;;;5029643;28;19924;-70
2022/08/09 10:14:48;;;;;;;;;;;22.10;99.90;;;;;;5047249;28;19927;-70
2022/08/09 10:17:13;;;;;;;;;;;22.40;99.90;;;;;;5047781;28;19920;-70
2022/08/09 10:19:39;;;;;;;;;;;22.90;99.90;;;;;;5029879;28;20352;-71
2022/08/09 10:22:05;;;;;;;;;;;23.40;99.90;;;;;;5047308;28;19921;-71
2022/08/09 10:24:31;;;;;;;;;;;23.80;99.90;;;;;;5046861;28;19943;-70
2022/08/09 10:26:57;;;;;;;;;;;24.20;99.90;;;;;;5048133;28;20409;-70
2022/08/09 10:29:23;;;;;;;;;;;24.60;99.90;;;;;;5047425;28;20427;-70
2022/08/09 10:31:49;;;;;;;;;;;24.80;99.90;;;;;;5051390;28;20012;-70
2022/08/09 10:34:14;;;;;;;;;;;24.60;99.90;;;;;;5049228;28;20127;-70
2022/08/09 10:36:41;;;;;;;;;;;24.50;99.90;;;;;;5033252;28;19971;-71
2022/08/09 10:39:06;;;;;;;;;;;24.60;99.90;;;;;;5050141;28;19920;-71
2022/08/09 10:41:32;;;;;;;;;;;24.80;99.90;;;;;;5051708;28;20112;-70
2022/08/09 10:43:57;;;;;;;;;;;24.90;99.90;;;;;;5053330;28;19924;-71
2022/08/09 10:46:23;;;;;;;;;;;24.70;99.90;;;;;;5051242;28;19928;-70
2022/08/09 10:48:57;;;;;;;;;;;24.30;99.90;;;;;;5050472;28;19986;-70
2022/08/09 10:51:41;;;;;;;;;;;24.10;99.90;;;;;;5048760;28;20281;-71
2022/08/09 10:54:09;;;;;;;;;;;24.30;99.90;;;;;;5048650;28;19974;-70
2022/08/09 10:56:36;;;;;;;;;;;24.90;99.90;;;;;;5050323;28;19970;-70
2022/08/09 10:59:20;;;;;;;;;;;25.20;99.90;;;;;;5049501;28;20607;-71
2022/08/09 11:01:47;;;;;;;;;;;25.10;99.90;;;;;;5050928;28;19920;-71
2022/08/09 11:04:13;;;;;;;;;;;24.80;99.90;;;;;;5032118;28;19928;-70
2022/08/09 11:06:40;;;;;;;;;;;24.50;99.90;;;;;;5032953;28;19921;-71
2022/08/09 11:09:06;;;;;;;;;;;24.20;99.90;;;;;;5048730;28;19927;-70
2022/08/09 11:11:51;;;;;;;;;;;24.20;99.90;;;;;;5033160;28;20065;-70
2022/08/09 11:14:34;;;;;;;;;;;24.30;99.90;;;;;;5049990;28;19928;-70
2022/08/09 11:17:19;;;;;;;;;;;24.60;99.90;;;;;;5049717;28;20020;-70
2022/08/09 11:19:55;;;;;;;;;;;24.60;99.90;;;;;;5034029;28;20397;-70
2022/08/09 11:22:43;;;;;;;;;;;24.40;99.90;;;;;;5050241;28;20393;-70
2022/08/09 11:25:09;;;;;;;;;;;24.60;99.90;;;;;;5049971;28;19920;-71
2022/08/09 11:27:35;;;;;;;;;;;24.90;99.90;;;;;;5048735;28;19995;-70
2022/08/09 11:30:01;;;;;;;;;;;25.20;99.90;;;;;;5050823;28;19927;-70
2022/08/09 11:32:42;;;;;;;;;;;25.30;99.90;;;;;;5046740;28;19925;-70
2022/08/09 11:35:16;;;;;;;;;;;25.10;99.90;;;;;;5031191;28;20278;-71
2022/08/09 11:37:42;;;;;;;;;;;24.90;99.90;;;;;;5048939;28;19974;-71
2022/08/09 11:40:09;;;;;;;;;;;24.70;99.90;;;;;;5048204;28;20282;-70
2022/08/09 11:42:51;;;;;;;;;;;24.40;99.90;;;;;;5048572;28;19920;-71
2022/08/09 11:45:23;;;;;;;;;;;24.40;99.90;;;;;;5048161;28;20534;-71
2022/08/09 11:47:50;;;;;;;;;;;24.60;99.90;;;;;;5046865;28;19920;-70
2022/08/09 11:50:15;;;;;;;;;;;24.90;99.90;;;;;;5048266;28;19921;-71
2022/08/09 11:53:13;;;;;;;;;;;25.30;99.90;;;;;;5049051;28;20108;-71
2022/08/09 11:55:40;;;;;;;;;;;25.50;99.90;;;;;;5015021;28;19956;-72
2022/08/09 11:58:15;;;;;;;;;;;25.80;99.90;;;;;;5032864;28;19975;-71
2022/08/09 12:00:50;;;;;;;;;;;26.00;99.90;;;;;;5048506;28;20137;-70
2022/08/09 12:03:17;;;;;;;;;;;26.00;99.90;;;;;;5048621;28;19921;-70
2022/08/09 12:05:43;;;;;;;;;;;26.00;99.90;;;;;;5050490;28;19925;-67
2022/08/09 12:08:09;;;;;;;;;;;26.00;99.90;;;;;;5051273;28;20041;-71
2022/08/09 12:10:35;;;;;;;;;;;25.90;99.30;;;;;;5049047;28;19927;-72
2022/08/09 12:13:01;;;;;;;;;;;25.70;99.80;;;;;;5049016;28;19927;-71
2022/08/09 12:15:27;;;;;;;;;;;25.50;99.90;;;;;;5047753;28;20028;-71
2022/08/09 12:17:53;;;;;;;;;;;25.30;99.90;;;;;;5050718;28;19931;-70
2022/08/09 12:20:23;;;;;;;;;;;25.20;99.90;;;;;;5047988;28;19970;-70
2022/08/09 12:22:53;;;;;;;;;;;25.30;99.90;;;;;;5050088;28;19950;-71
2022/08/09 12:25:19;;;;;;;;;;;25.20;99.90;;;;;;5032398;28;20336;-71
2022/08/09 12:27:44;;;;;;;;;;;24.90;99.90;;;;;;5049176;28;19920;-69
2022/08/09 12:30:10;;;;;;;;;;;24.60;99.90;;;;;;5029914;28;19928;-71
2022/08/09 12:32:36;;;;;;;;;;;24.60;99.90;;;;;;5046360;28;20015;-71
2022/08/09 12:35:03;;;;;;;;;;;24.80;99.90;;;;;;5050242;28;20011;-71
2022/08/09 12:37:29;;;;;;;;;;;25.10;99.90;;;;;;5048629;28;19928;-71
2022/08/09 12:40:06;;;;;;;;;;;25.20;99.90;;;;;;5049177;28;19920;-70
2022/08/09 12:42:32;;;;;;;;;;;25.20;99.90;;;;;;5047616;28;19931;-71
2022/08/09 12:44:58;;;;;;;;;;;25.20;99.90;;;;;;5047236;28;20007;-71
2022/08/09 12:47:23;;;;;;;;;;;25.20;99.90;;;;;;5046682;28;19920;-71
2022/08/09 12:52:40;;;;;;;;;;;25.30;99.90;;;;;;5047247;28;19921;-71
2022/08/09 12:55:08;;;;;;;;;;;25.40;99.90;;;;;;5062565;28;19974;-70
2022/08/09 12:57:38;;;;;;;;;;;25.40;99.90;;;;;;5046923;28;19924;-71
2022/08/09 13:00:21;;;;;;;;;;;25.50;99.60;;;;;;5046611;28;19928;-72
2022/08/09 13:02:54;;;;;;;;;;;25.30;99.70;;;;;;5048314;28;19966;-71
2022/08/09 13:05:20;;;;;;;;;;;25.30;99.70;;;;;;5046357;28;19970;-71
2022/08/09 13:08:05;;;;;;;;;;;25.30;99.40;;;;;;5030720;28;20381;-71
2022/08/09 13:10:30;;;;;;;;;;;25.30;98.90;;;;;;5047177;28;19943;-70
2022/08/09 13:12:59;;;;;;;;;;;25.20;99.00;;;;;;5046933;28;20425;-71
2022/08/09 13:15:24;;;;;;;;;;;25.10;98.80;;;;;;5045661;28;19928;-70
2022/08/09 13:17:50;;;;;;;;;;;25.10;99.00;;;;;;5048272;28;19925;-70
2022/08/09 13:20:16;;;;;;;;;;;25.10;98.90;;;;;;5045868;28;20015;-70
2022/08/09 13:22:49;;;;;;;;;;;25.10;98.60;;;;;;5049412;28;20365;-69
2022/08/09 13:25:14;;;;;;;;;;;25.20;98.50;;;;;;5048260;28;20003;-70
2022/08/09 13:27:40;;;;;;;;;;;24.90;98.40;;;;;;5046060;28;20023;-70
2022/08/09 13:30:07;;;;;;;;;;;25.00;98.90;;;;;;5046646;28;20031;-70
2022/08/09 13:32:46;;;;;;;;;;;25.00;99.20;;;;;;5046025;28;19931;-70
2022/08/09 13:35:13;;;;;;;;;;;25.00;99.30;;;;;;5046831;28;19970;-70
2022/08/09 13:37:38;;;;;;;;;;;25.10;99.80;;;;;;5047427;28;20357;-72
2022/08/09 13:40:05;;;;;;;;;;;25.30;99.60;;;;;;5046329;28;19971;-71
2022/08/09 13:42:31;;;;;;;;;;;25.20;98.80;;;;;;5046481;28;20016;-70
2022/08/09 13:44:56;;;;;;;;;;;25.20;99.10;;;;;;5047397;28;20559;-69
2022/08/09 13:47:22;;;;;;;;;;;25.10;98.90;;;;;;5046195;28;20289;-70
2022/08/09 13:49:48;;;;;;;;;;;25.10;98.80;;;;;;5048356;28;20316;-70
2022/08/09 13:52:14;;;;;;;;;;;25.00;99.10;;;;;;5048091;28;19927;-69
2022/08/09 13:54:39;;;;;;;;;;;25.00;99.60;;;;;;5047785;28;19921;-70
2022/08/09 13:57:06;;;;;;;;;;;25.00;99.80;;;;;;5048306;28;20011;-70
2022/08/09 13:59:32;;;;;;;;;;;25.00;99.80;;;;;;5045857;28;19931;-70
2022/08/09 14:01:58;;;;;;;;;;;24.90;99.50;;;;;;5029357;28;19921;-73
2022/08/09 14:04:24;;;;;;;;;;;24.80;99.40;;;;;;5047608;28;20405;-69